DEPSG EDVK-EDVE
Flight info
| Callsign | DEPSG |
|---|---|
| Flight time | 0h 44m |
| Altitude | 3500 |
| Route | GOETTINGEN DCT SALZGITTER |
| Aircraft | C206/L-SDFGR/C |
Departure
| Time | 2026-04-26 07:25 |
|---|---|
| Airport | Kassel Airport (EDVK) |
Arrival
| Time | 2026-04-26 08:10 |
|---|---|
| Airport | Braunschweig-Wolfsburg Airport (EDVE) |
| Time | Latitude | Longitude | Altitude | Speed | Heading |
|---|---|---|---|---|---|
| 2026-04-26 07:17 | 51.41753 | 9.39374 | 824 ft | 0 kts | 232° |
| 2026-04-26 07:20 | 51.41752 | 9.39371 | 824 ft | 1 kts | 238° |
| 2026-04-26 07:20 | 51.41761 | 9.39348 | 824 ft | 4 kts | 340° |
| 2026-04-26 07:20 | 51.41803 | 9.39351 | 824 ft | 7 kts | 7° |
| 2026-04-26 07:21 | 51.41864 | 9.39359 | 824 ft | 10 kts | 1° |
| 2026-04-26 07:21 | 51.41910 | 9.39325 | 829 ft | 6 kts | 290° |
| 2026-04-26 07:21 | 51.41917 | 9.39244 | 830 ft | 8 kts | 274° |
| 2026-04-26 07:21 | 51.41924 | 9.39126 | 834 ft | 12 kts | 276° |
| 2026-04-26 07:22 | 51.41932 | 9.38973 | 838 ft | 16 kts | 275° |
| 2026-04-26 07:22 | 51.41944 | 9.38777 | 841 ft | 19 kts | 273° |
| 2026-04-26 07:22 | 51.41957 | 9.38557 | 845 ft | 20 kts | 275° |
| 2026-04-26 07:22 | 51.41969 | 9.38324 | 847 ft | 22 kts | 275° |
| 2026-04-26 07:23 | 51.41983 | 9.38088 | 857 ft | 20 kts | 274° |
| 2026-04-26 07:23 | 51.41994 | 9.37864 | 863 ft | 20 kts | 275° |
| 2026-04-26 07:23 | 51.42006 | 9.37631 | 866 ft | 21 kts | 275° |
| 2026-04-26 07:23 | 51.42032 | 9.37440 | 866 ft | 11 kts | 331° |
| 2026-04-26 07:24 | 51.42130 | 9.37434 | 863 ft | 17 kts | 14° |
| 2026-04-26 07:24 | 51.42168 | 9.37612 | 860 ft | 22 kts | 96° |
| 2026-04-26 07:24 | 51.42149 | 9.37974 | 854 ft | 49 kts | 95° |
| 2026-04-26 07:24 | 51.42092 | 9.38762 | 913 ft | 83 kts | 92° |
| 2026-04-26 07:25 | 51.42023 | 9.39685 | 1127 ft | 89 kts | 90° |
| 2026-04-26 07:25 | 51.41954 | 9.40751 | 1304 ft | 100 kts | 92° |
| 2026-04-26 07:25 | 51.41976 | 9.41867 | 1460 ft | 106 kts | 68° |
| 2026-04-26 07:25 | 51.42361 | 9.42813 | 1776 ft | 95 kts | 49° |
| 2026-04-26 07:26 | 51.42780 | 9.43662 | 1963 ft | 99 kts | 49° |
| 2026-04-26 07:26 | 51.43177 | 9.44525 | 2128 ft | 97 kts | 50° |
| 2026-04-26 07:26 | 51.43591 | 9.45388 | 2248 ft | 98 kts | 47° |
| 2026-04-26 07:26 | 51.44023 | 9.46245 | 2373 ft | 98 kts | 46° |
| 2026-04-26 07:27 | 51.44460 | 9.47099 | 2434 ft | 104 kts | 51° |
| 2026-04-26 07:27 | 51.44887 | 9.48059 | 2482 ft | 108 kts | 51° |
| 2026-04-26 07:27 | 51.45406 | 9.49026 | 2504 ft | 111 kts | 43° |
| 2026-04-26 07:27 | 51.45931 | 9.49962 | 2493 ft | 114 kts | 48° |
| 2026-04-26 07:28 | 51.46433 | 9.50999 | 2486 ft | 113 kts | 51° |
| 2026-04-26 07:28 | 51.46977 | 9.51950 | 2478 ft | 112 kts | 40° |
| 2026-04-26 07:28 | 51.47591 | 9.52752 | 2476 ft | 111 kts | 38° |
| 2026-04-26 07:28 | 51.48200 | 9.53587 | 2457 ft | 111 kts | 38° |
| 2026-04-26 07:29 | 51.48767 | 9.54447 | 2469 ft | 110 kts | 50° |
| 2026-04-26 07:29 | 51.49057 | 9.55574 | 2602 ft | 100 kts | 74° |
| 2026-04-26 07:29 | 51.49180 | 9.56630 | 2722 ft | 96 kts | 75° |
| 2026-04-26 07:29 | 51.49267 | 9.57732 | 2764 ft | 100 kts | 78° |
| 2026-04-26 07:30 | 51.49394 | 9.58765 | 2910 ft | 93 kts | 71° |
| 2026-04-26 07:30 | 51.49543 | 9.59830 | 2964 ft | 98 kts | 73° |
| 2026-04-26 07:30 | 51.49651 | 9.60865 | 3129 ft | 93 kts | 76° |
| 2026-04-26 07:30 | 51.49740 | 9.61940 | 3177 ft | 98 kts | 77° |
| 2026-04-26 07:31 | 51.49850 | 9.62967 | 3318 ft | 93 kts | 70° |
| 2026-04-26 07:31 | 51.50025 | 9.64014 | 3359 ft | 96 kts | 68° |
| 2026-04-26 07:31 | 51.50231 | 9.65010 | 3420 ft | 96 kts | 69° |
| 2026-04-26 07:31 | 51.50496 | 9.65961 | 3466 ft | 95 kts | 59° |
| 2026-04-26 07:32 | 51.50806 | 9.66935 | 3465 ft | 99 kts | 59° |
| 2026-04-26 07:32 | 51.51117 | 9.67926 | 3481 ft | 100 kts | 60° |
| 2026-04-26 07:32 | 51.51419 | 9.68948 | 3479 ft | 102 kts | 61° |
| 2026-04-26 07:32 | 51.51707 | 9.69995 | 3490 ft | 103 kts | 64° |
| 2026-04-26 07:33 | 51.51959 | 9.71074 | 3504 ft | 103 kts | 68° |
| 2026-04-26 07:33 | 51.52171 | 9.72180 | 3511 ft | 104 kts | 69° |
| 2026-04-26 07:33 | 51.52399 | 9.73288 | 3523 ft | 104 kts | 67° |
| 2026-04-26 07:33 | 51.52650 | 9.74388 | 3540 ft | 103 kts | 65° |
| 2026-04-26 07:34 | 51.52911 | 9.75476 | 3560 ft | 103 kts | 65° |
| 2026-04-26 07:34 | 51.53170 | 9.76563 | 3571 ft | 103 kts | 64° |
| 2026-04-26 07:34 | 51.53442 | 9.77639 | 3574 ft | 103 kts | 62° |
| 2026-04-26 07:34 | 51.53735 | 9.78710 | 3564 ft | 104 kts | 62° |
| 2026-04-26 07:35 | 51.54031 | 9.79788 | 3570 ft | 104 kts | 62° |
| 2026-04-26 07:35 | 51.54321 | 9.80874 | 3574 ft | 105 kts | 62° |
| 2026-04-26 07:35 | 51.54604 | 9.81953 | 3572 ft | 105 kts | 64° |
| 2026-04-26 07:35 | 51.54873 | 9.83058 | 3588 ft | 105 kts | 65° |
| 2026-04-26 07:36 | 51.55117 | 9.84161 | 3585 ft | 106 kts | 68° |
| 2026-04-26 07:36 | 51.55344 | 9.85296 | 3583 ft | 107 kts | 69° |
| 2026-04-26 07:36 | 51.55559 | 9.86450 | 3596 ft | 106 kts | 70° |
| 2026-04-26 07:36 | 51.55736 | 9.87611 | 3589 ft | 108 kts | 74° |
| 2026-04-26 07:37 | 51.55859 | 9.88819 | 3589 ft | 108 kts | 78° |
| 2026-04-26 07:37 | 51.56067 | 9.89970 | 3569 ft | 107 kts | 60° |
| 2026-04-26 07:37 | 51.56506 | 9.90907 | 3572 ft | 105 kts | 40° |
| 2026-04-26 07:37 | 51.57129 | 9.91524 | 3571 ft | 104 kts | 27° |
| 2026-04-26 07:38 | 51.57760 | 9.92097 | 3576 ft | 104 kts | 31° |
| 2026-04-26 07:38 | 51.58351 | 9.92748 | 3572 ft | 104 kts | 36° |
| 2026-04-26 07:38 | 51.58915 | 9.93458 | 3579 ft | 103 kts | 32° |
| 2026-04-26 07:38 | 51.59560 | 9.93997 | 3555 ft | 105 kts | 24° |
| 2026-04-26 07:39 | 51.60221 | 9.94492 | 3569 ft | 103 kts | 26° |
| 2026-04-26 07:39 | 51.60854 | 9.95042 | 3564 ft | 104 kts | 30° |
| 2026-04-26 07:39 | 51.61483 | 9.95647 | 3558 ft | 104 kts | 29° |
| 2026-04-26 07:39 | 51.62111 | 9.96200 | 3568 ft | 103 kts | 27° |
| 2026-04-26 07:40 | 51.62765 | 9.96731 | 3547 ft | 105 kts | 26° |
| 2026-04-26 07:40 | 51.63410 | 9.97257 | 3565 ft | 103 kts | 27° |
| 2026-04-26 07:40 | 51.64049 | 9.97786 | 3564 ft | 103 kts | 25° |
| 2026-04-26 07:40 | 51.64730 | 9.98218 | 3555 ft | 104 kts | 20° |
| 2026-04-26 07:41 | 51.65410 | 9.98610 | 3556 ft | 104 kts | 20° |
| 2026-04-26 07:41 | 51.66086 | 9.99018 | 3550 ft | 104 kts | 21° |
| 2026-04-26 07:41 | 51.66761 | 9.99472 | 3541 ft | 104 kts | 23° |
| 2026-04-26 07:41 | 51.67426 | 9.99947 | 3537 ft | 104 kts | 25° |
| 2026-04-26 07:42 | 51.68068 | 10.00480 | 3522 ft | 105 kts | 28° |
| 2026-04-26 07:42 | 51.68703 | 10.01051 | 3522 ft | 104 kts | 28° |
| 2026-04-26 07:42 | 51.69344 | 10.01619 | 3521 ft | 104 kts | 29° |
| 2026-04-26 07:42 | 51.69971 | 10.02207 | 3524 ft | 104 kts | 31° |
| 2026-04-26 07:43 | 51.70576 | 10.02884 | 3507 ft | 106 kts | 38° |
| 2026-04-26 07:43 | 51.71125 | 10.03668 | 3516 ft | 104 kts | 39° |
| 2026-04-26 07:43 | 51.71697 | 10.04376 | 3510 ft | 104 kts | 34° |
| 2026-04-26 07:43 | 51.72324 | 10.05031 | 3497 ft | 104 kts | 30° |
| 2026-04-26 07:44 | 51.72966 | 10.05623 | 3493 ft | 104 kts | 28° |
| 2026-04-26 07:44 | 51.73595 | 10.06203 | 3491 ft | 103 kts | 30° |
| 2026-04-26 07:44 | 51.74217 | 10.06819 | 3489 ft | 104 kts | 31° |
| 2026-04-26 07:44 | 51.74825 | 10.07463 | 3477 ft | 105 kts | 33° |
| 2026-04-26 07:45 | 51.75431 | 10.08207 | 3468 ft | 105 kts | 37° |
| 2026-04-26 07:45 | 51.76041 | 10.08838 | 3470 ft | 105 kts | 26° |
| 2026-04-26 07:45 | 51.76698 | 10.09372 | 3456 ft | 105 kts | 26° |
| 2026-04-26 07:45 | 51.77368 | 10.09898 | 3465 ft | 105 kts | 25° |
| 2026-04-26 07:46 | 51.78037 | 10.10372 | 3461 ft | 105 kts | 22° |
| 2026-04-26 07:46 | 51.78723 | 10.10809 | 3446 ft | 106 kts | 21° |
| 2026-04-26 07:46 | 51.79437 | 10.11222 | 3458 ft | 105 kts | 20° |
| 2026-04-26 07:46 | 51.80148 | 10.11631 | 3450 ft | 105 kts | 20° |
| 2026-04-26 07:47 | 51.80829 | 10.12056 | 3469 ft | 103 kts | 22° |
| 2026-04-26 07:47 | 51.81502 | 10.12559 | 3445 ft | 105 kts | 25° |
| 2026-04-26 07:47 | 51.82202 | 10.13014 | 3462 ft | 103 kts | 20° |
| 2026-04-26 07:47 | 51.82904 | 10.13455 | 3424 ft | 106 kts | 21° |
| 2026-04-26 07:48 | 51.83606 | 10.13871 | 3447 ft | 104 kts | 18° |
| 2026-04-26 07:48 | 51.84304 | 10.14207 | 3435 ft | 105 kts | 15° |
| 2026-04-26 07:48 | 51.85036 | 10.14462 | 3433 ft | 105 kts | 11° |
| 2026-04-26 07:48 | 51.85771 | 10.14640 | 3425 ft | 106 kts | 9° |
| 2026-04-26 07:49 | 51.86503 | 10.14813 | 3426 ft | 106 kts | 9° |
| 2026-04-26 07:49 | 51.87236 | 10.14975 | 3409 ft | 107 kts | 9° |
| 2026-04-26 07:49 | 51.87981 | 10.15139 | 3422 ft | 106 kts | 8° |
| 2026-04-26 07:50 | 51.89474 | 10.15460 | 3414 ft | 106 kts | 10° |
| 2026-04-26 07:50 | 51.90198 | 10.15661 | 3412 ft | 105 kts | 11° |
| 2026-04-26 07:50 | 51.90915 | 10.15898 | 3403 ft | 106 kts | 14° |
| 2026-04-26 07:50 | 51.91636 | 10.16184 | 3412 ft | 105 kts | 13° |
| 2026-04-26 07:51 | 51.92365 | 10.16484 | 3414 ft | 104 kts | 15° |
| 2026-04-26 07:51 | 51.93068 | 10.16842 | 3410 ft | 104 kts | 20° |
| 2026-04-26 07:51 | 51.93753 | 10.17289 | 3397 ft | 105 kts | 23° |
| 2026-04-26 07:51 | 51.94446 | 10.17828 | 3381 ft | 106 kts | 26° |
| 2026-04-26 07:52 | 51.95155 | 10.18368 | 3321 ft | 111 kts | 25° |
| 2026-04-26 07:52 | 51.95868 | 10.18926 | 3306 ft | 109 kts | 27° |
| 2026-04-26 07:52 | 51.96571 | 10.19536 | 3307 ft | 108 kts | 27° |
| 2026-04-26 07:52 | 51.97292 | 10.20040 | 3258 ft | 111 kts | 22° |
| 2026-04-26 07:53 | 51.98035 | 10.20539 | 3195 ft | 112 kts | 24° |
| 2026-04-26 07:53 | 51.98763 | 10.21089 | 3159 ft | 111 kts | 26° |
| 2026-04-26 07:53 | 51.99484 | 10.21706 | 3107 ft | 111 kts | 27° |
| 2026-04-26 07:53 | 52.00191 | 10.22329 | 3066 ft | 110 kts | 28° |
| 2026-04-26 07:54 | 52.00865 | 10.22987 | 3012 ft | 110 kts | 31° |
| 2026-04-26 07:54 | 52.01513 | 10.23643 | 2966 ft | 110 kts | 28° |
| 2026-04-26 07:54 | 52.02206 | 10.24169 | 2903 ft | 111 kts | 21° |
| 2026-04-26 07:54 | 52.02931 | 10.24622 | 2856 ft | 111 kts | 21° |
| 2026-04-26 07:55 | 52.03667 | 10.25088 | 2746 ft | 115 kts | 21° |
| 2026-04-26 07:55 | 52.04411 | 10.25563 | 2692 ft | 114 kts | 20° |
| 2026-04-26 07:55 | 52.05150 | 10.26006 | 2632 ft | 113 kts | 20° |
| 2026-04-26 07:55 | 52.05892 | 10.26473 | 2544 ft | 115 kts | 22° |
| 2026-04-26 07:56 | 52.06623 | 10.26973 | 2495 ft | 113 kts | 22° |
| 2026-04-26 07:56 | 52.07356 | 10.27445 | 2420 ft | 114 kts | 20° |
| 2026-04-26 07:56 | 52.08094 | 10.27890 | 2364 ft | 112 kts | 20° |
| 2026-04-26 07:56 | 52.08824 | 10.28333 | 2307 ft | 112 kts | 20° |
| 2026-04-26 07:57 | 52.09553 | 10.28816 | 2232 ft | 112 kts | 21° |
| 2026-04-26 07:57 | 52.10277 | 10.29312 | 2155 ft | 113 kts | 22° |
| 2026-04-26 07:57 | 52.11000 | 10.29844 | 2081 ft | 113 kts | 24° |
| 2026-04-26 07:57 | 52.11709 | 10.30410 | 2021 ft | 112 kts | 26° |
| 2026-04-26 07:58 | 52.12400 | 10.31016 | 1958 ft | 113 kts | 27° |
| 2026-04-26 07:58 | 52.13088 | 10.31646 | 1894 ft | 114 kts | 28° |
| 2026-04-26 07:58 | 52.13767 | 10.32320 | 1844 ft | 113 kts | 31° |
| 2026-04-26 07:58 | 52.14427 | 10.32998 | 1800 ft | 111 kts | 30° |
| 2026-04-26 07:59 | 52.15080 | 10.33652 | 1795 ft | 108 kts | 30° |
| 2026-04-26 07:59 | 52.15709 | 10.34317 | 1775 ft | 107 kts | 31° |
| 2026-04-26 07:59 | 52.16328 | 10.34980 | 1736 ft | 108 kts | 31° |
| 2026-04-26 07:59 | 52.16953 | 10.35661 | 1709 ft | 108 kts | 32° |
| 2026-04-26 08:00 | 52.17571 | 10.36372 | 1673 ft | 108 kts | 33° |
| 2026-04-26 08:00 | 52.18157 | 10.37126 | 1640 ft | 108 kts | 37° |
| 2026-04-26 08:00 | 52.18758 | 10.37883 | 1609 ft | 108 kts | 33° |
| 2026-04-26 08:00 | 52.19378 | 10.38585 | 1572 ft | 109 kts | 32° |
| 2026-04-26 08:01 | 52.20014 | 10.39274 | 1544 ft | 109 kts | 31° |
| 2026-04-26 08:01 | 52.20650 | 10.39931 | 1513 ft | 109 kts | 30° |
| 2026-04-26 08:01 | 52.21302 | 10.40569 | 1482 ft | 109 kts | 28° |
| 2026-04-26 08:01 | 52.21940 | 10.41226 | 1450 ft | 109 kts | 34° |
| 2026-04-26 08:02 | 52.22539 | 10.41985 | 1447 ft | 107 kts | 36° |
| 2026-04-26 08:02 | 52.23119 | 10.42764 | 1405 ft | 109 kts | 39° |
| 2026-04-26 08:02 | 52.23682 | 10.43585 | 1392 ft | 108 kts | 39° |
| 2026-04-26 08:02 | 52.24252 | 10.44391 | 1396 ft | 105 kts | 37° |
| 2026-04-26 08:03 | 52.24803 | 10.45160 | 1382 ft | 106 kts | 38° |
| 2026-04-26 08:03 | 52.25364 | 10.45960 | 1355 ft | 107 kts | 39° |
| 2026-04-26 08:03 | 52.25912 | 10.46770 | 1358 ft | 106 kts | 39° |
| 2026-04-26 08:03 | 52.26463 | 10.47590 | 1330 ft | 107 kts | 40° |
| 2026-04-26 08:04 | 52.26999 | 10.48409 | 1324 ft | 106 kts | 41° |
| 2026-04-26 08:04 | 52.27533 | 10.49265 | 1290 ft | 109 kts | 41° |
| 2026-04-26 08:04 | 52.28065 | 10.50142 | 1279 ft | 108 kts | 43° |
| 2026-04-26 08:04 | 52.28567 | 10.51056 | 1257 ft | 109 kts | 51° |
| 2026-04-26 08:05 | 52.28901 | 10.52164 | 1238 ft | 111 kts | 71° |
| 2026-04-26 08:05 | 52.29078 | 10.53391 | 1249 ft | 108 kts | 73° |
| 2026-04-26 08:05 | 52.29240 | 10.54596 | 1234 ft | 109 kts | 75° |
| 2026-04-26 08:05 | 52.29366 | 10.55827 | 1230 ft | 109 kts | 78° |
| 2026-04-26 08:06 | 52.29477 | 10.57062 | 1215 ft | 109 kts | 75° |
| 2026-04-26 08:06 | 52.29646 | 10.58266 | 1198 ft | 110 kts | 74° |
| 2026-04-26 08:06 | 52.29818 | 10.59478 | 1193 ft | 110 kts | 73° |
| 2026-04-26 08:06 | 52.29991 | 10.60710 | 1170 ft | 111 kts | 74° |
| 2026-04-26 08:07 | 52.30166 | 10.61923 | 1191 ft | 108 kts | 73° |
| 2026-04-26 08:07 | 52.30351 | 10.63129 | 1134 ft | 109 kts | 73° |
| 2026-04-26 08:07 | 52.30671 | 10.64141 | 1101 ft | 98 kts | 32° |
| 2026-04-26 08:07 | 52.31313 | 10.64257 | 1034 ft | 94 kts | 346° |
| 2026-04-26 08:08 | 52.31909 | 10.63967 | 1032 ft | 88 kts | 337° |
| 2026-04-26 08:08 | 52.32380 | 10.63336 | 930 ft | 94 kts | 296° |
| 2026-04-26 08:08 | 52.32346 | 10.62276 | 839 ft | 97 kts | 250° |
| 2026-04-26 08:08 | 52.32197 | 10.61230 | 809 ft | 93 kts | 266° |
| 2026-04-26 08:09 | 52.32173 | 10.60173 | 726 ft | 89 kts | 268° |
| 2026-04-26 08:09 | 52.32117 | 10.59219 | 587 ft | 81 kts | 266° |
| 2026-04-26 08:09 | 52.32073 | 10.58329 | 449 ft | 77 kts | 266° |
| 2026-04-26 08:09 | 52.32022 | 10.57464 | 322 ft | 75 kts | 265° |
| 2026-04-26 08:10 | 52.31985 | 10.56692 | 289 ft | 56 kts | 264° |
| 2026-04-26 08:10 | 52.31934 | 10.56409 | 285 ft | 12 kts | 189° |
| 2026-04-26 08:10 | 52.31863 | 10.56399 | 284 ft | 8 kts | 178° |
| 2026-04-26 08:10 | 52.31800 | 10.56408 | 283 ft | 10 kts | 193° |
| 2026-04-26 08:11 | 52.31775 | 10.56292 | 281 ft | 13 kts | 267° |
| 2026-04-26 08:11 | 52.31766 | 10.56123 | 279 ft | 16 kts | 266° |
| 2026-04-26 08:11 | 52.31756 | 10.55938 | 277 ft | 17 kts | 263° |
| 2026-04-26 08:11 | 52.31731 | 10.55739 | 275 ft | 16 kts | 234° |
| 2026-04-26 08:12 | 52.31649 | 10.55636 | 275 ft | 15 kts | 211° |
| 2026-04-26 08:12 | 52.31573 | 10.55518 | 275 ft | 13 kts | 265° |
| 2026-04-26 08:12 | 52.31555 | 10.55457 | 275 ft | 5 kts | 168° |
| 2026-04-26 08:12 | 52.31549 | 10.55465 | 275 ft | 0 kts | 122° |